Time;durP1;ratioP1;P1;durP2;ratioP2;P2;SDS_P1;SDS_P2;PMS_P1;PMS_P2;Temp;Humidity;BMP_temperature;BMP_pressure;BME280_temperature;BME280_humidity;BME280_pressure;Samples;Min_cycle;Max_cycle;Signal;HPM_P1;HPM_P2
2023/09/08 00:02:58;;;;;;;1.40;0.77;;;23.20;52.10;;;;;;6193261;28;20029;-67
2023/09/08 00:05:59;;;;;;;0.95;0.82;;;23.20;52.10;;;;;;6198451;28;20393;-67
2023/09/08 00:09:00;;;;;;;1.48;1.10;;;23.20;52.10;;;;;;6198539;28;20048;-67
2023/09/08 00:12:01;;;;;;;1.38;1.05;;;23.30;52.10;;;;;;6198238;28;20042;-67
2023/09/08 00:15:01;;;;;;;1.20;0.88;;;23.30;52.00;;;;;;6198262;28;20492;-67
2023/09/08 00:18:02;;;;;;;0.98;0.82;;;23.30;51.90;;;;;;6198039;28;20042;-67
2023/09/08 00:21:03;;;;;;;1.63;1.00;;;23.30;52.00;;;;;;6198604;28;20049;-67
2023/09/08 00:24:04;;;;;;;1.33;0.80;;;23.30;52.00;;;;;;6197789;28;20027;-68
2023/09/08 00:27:05;;;;;;;0.98;0.82;;;23.30;51.90;;;;;;6198281;28;20530;-68
2023/09/08 00:30:06;;;;;;;0.57;0.57;;;23.30;52.60;;;;;;6197640;28;20154;-67
2023/09/08 00:33:08;;;;;;;1.25;1.00;;;23.30;51.90;;;;;;6197544;28;20640;-67
2023/09/08 00:36:09;;;;;;;1.42;0.93;;;23.30;52.00;;;;;;6198312;28;20088;-67
2023/09/08 00:39:10;;;;;;;0.90;0.80;;;23.30;51.80;;;;;;6197519;28;20473;-66
2023/09/08 00:42:10;;;;;;;0.90;0.80;;;23.30;51.80;;;;;;6197577;28;20088;-67
2023/09/08 00:45:11;;;;;;;0.85;0.77;;;23.30;51.90;;;;;;6197438;28;20022;-67
2023/09/08 00:48:12;;;;;;;1.17;0.90;;;23.30;51.90;;;;;;6197429;28;20507;-67
2023/09/08 00:51:13;;;;;;;1.02;0.93;;;23.30;51.90;;;;;;6197786;28;20026;-67
2023/09/08 00:54:15;;;;;;;1.90;1.02;;;23.30;51.80;;;;;;6197051;28;20062;-67
2023/09/08 00:57:15;;;;;;;2.08;0.82;;;23.30;51.80;;;;;;6197723;28;20384;-67
2023/09/08 01:00:16;;;;;;;1.58;1.00;;;23.30;51.70;;;;;;6196620;28;20029;-67
2023/09/08 01:03:17;;;;;;;1.00;0.90;;;23.30;51.70;;;;;;6197046;28;20457;-67
2023/09/08 01:06:18;;;;;;;1.00;0.90;;;23.30;51.70;;;;;;6196936;28;20027;-67
2023/09/08 01:09:19;;;;;;;1.42;0.98;;;23.30;51.70;;;;;;6197182;28;20424;-67
2023/09/08 01:12:19;;;;;;;1.05;0.80;;;23.30;51.70;;;;;;6196703;28;20113;-67
2023/09/08 01:15:20;;;;;;;1.15;0.95;;;23.30;51.70;;;;;;6196443;28;20551;-67
2023/09/08 01:18:20;;;;;;;1.38;0.90;;;23.30;51.80;;;;;;6196493;28;20412;-67
2023/09/08 01:21:41;;;;;;;1.08;0.98;;;23.30;51.70;;;;;;6196887;28;20104;-66
2023/09/08 01:25:03;;;;;;;1.38;1.10;;;23.30;51.70;;;;;;6196340;28;20034;-66
2023/09/08 01:28:06;;;;;;;1.20;0.93;;;23.30;51.60;;;;;;6196898;28;20027;-67
2023/09/08 01:31:07;;;;;;;1.25;0.90;;;23.30;51.70;;;;;;6195266;28;20026;-67
2023/09/08 01:34:08;;;;;;;0.82;0.80;;;23.20;52.60;;;;;;6196549;28;20030;-67
2023/09/08 01:37:09;;;;;;;1.45;1.00;;;23.00;53.30;;;;;;6196282;28;20031;-67
2023/09/08 01:40:10;;;;;;;0.95;0.82;;;22.90;54.20;;;;;;6196404;28;20102;-67
2023/09/08 01:43:11;;;;;;;0.98;0.75;;;22.80;54.70;;;;;;6196256;28;20097;-67
2023/09/08 01:46:11;;;;;;;1.38;0.90;;;22.70;55.10;;;;;;6195710;28;20430;-67
2023/09/08 01:49:12;;;;;;;1.00;0.85;;;22.70;55.50;;;;;;6196623;28;20500;-67
2023/09/08 01:52:13;;;;;;;1.10;1.00;;;22.60;56.00;;;;;;6195838;28;20135;-66
2023/09/08 01:55:14;;;;;;;0.80;0.70;;;22.60;56.20;;;;;;6195803;28;20061;-67
2023/09/08 01:58:15;;;;;;;0.77;0.77;;;22.60;56.80;;;;;;6196082;28;20034;-67
2023/09/08 02:01:15;;;;;;;1.02;0.90;;;22.60;56.60;;;;;;6196147;28;20026;-67
2023/09/08 02:04:16;;;;;;;1.50;0.95;;;22.60;56.90;;;;;;6195621;28;20026;-66
2023/09/08 02:07:16;;;;;;;1.30;1.15;;;22.50;57.00;;;;;;6195384;28;20472;-67
2023/09/08 02:10:17;;;;;;;1.60;1.00;;;22.50;57.10;;;;;;6195517;28;20041;-67
2023/09/08 02:13:18;;;;;;;1.33;1.15;;;22.50;57.20;;;;;;6194482;28;20054;-67
2023/09/08 02:16:19;;;;;;;1.48;1.15;;;22.50;57.30;;;;;;6194891;28;20027;-67
2023/09/08 02:19:19;;;;;;;1.08;0.95;;;22.50;57.30;;;;;;6195301;28;20080;-67
2023/09/08 02:22:20;;;;;;;1.30;1.00;;;22.50;57.60;;;;;;6195356;28;20137;-67
2023/09/08 02:25:23;;;;;;;1.17;1.05;;;22.50;57.60;;;;;;6194795;28;20041;-67
2023/09/08 02:28:24;;;;;;;1.20;0.95;;;22.40;57.50;;;;;;6194230;28;20057;-67
2023/09/08 02:31:27;;;;;;;1.83;1.10;;;22.40;57.80;;;;;;6194880;28;20604;-67
2023/09/08 02:34:27;;;;;;;1.30;1.10;;;22.40;57.80;;;;;;6195293;28;20320;-67
2023/09/08 02:37:28;;;;;;;1.80;1.17;;;22.40;57.80;;;;;;6194956;28;20141;-67
2023/09/08 02:40:28;;;;;;;1.55;1.10;;;22.40;57.80;;;;;;6194460;28;20030;-67
2023/09/08 02:43:29;;;;;;;1.35;1.08;;;22.40;57.80;;;;;;6194551;28;20037;-67
2023/09/08 02:46:30;;;;;;;1.33;1.08;;;22.40;57.80;;;;;;6194534;28;20034;-67
2023/09/08 02:49:30;;;;;;;1.27;0.98;;;22.40;57.70;;;;;;6194069;28;20065;-67
2023/09/08 02:52:31;;;;;;;1.42;1.15;;;22.40;58.00;;;;;;6194774;28;20559;-67
2023/09/08 02:55:31;;;;;;;1.20;1.10;;;22.40;57.80;;;;;;6194206;28;20516;-68
2023/09/08 02:58:35;;;;;;;1.40;1.10;;;22.40;58.20;;;;;;6194715;28;20030;-67
2023/09/08 03:01:35;;;;;;;1.52;1.20;;;22.40;57.70;;;;;;6193934;28;20109;-67
2023/09/08 03:04:36;;;;;;;1.27;1.10;;;22.40;57.90;;;;;;6193755;28;20030;-67
2023/09/08 03:07:37;;;;;;;1.02;0.80;;;22.40;57.90;;;;;;6194259;28;20054;-68
2023/09/08 03:10:38;;;;;;;1.30;1.00;;;22.40;57.90;;;;;;6193823;28;20477;-67
2023/09/08 03:13:38;;;;;;;1.83;1.00;;;22.40;58.00;;;;;;6193966;28;20042;-67
2023/09/08 03:16:39;;;;;;;1.40;1.00;;;22.40;58.00;;;;;;6193930;28;20033;-67
2023/09/08 03:19:40;;;;;;;1.20;1.00;;;22.40;58.10;;;;;;6193241;28;20042;-68
2023/09/08 03:22:40;;;;;;;1.50;1.00;;;22.40;58.10;;;;;;6194641;28;20038;-67
2023/09/08 03:25:41;;;;;;;1.45;1.02;;;22.40;58.20;;;;;;6193372;28;20032;-67
2023/09/08 03:28:43;;;;;;;1.15;1.00;;;22.40;58.20;;;;;;6193974;28;20117;-67
2023/09/08 03:31:43;;;;;;;1.23;1.13;;;22.30;58.10;;;;;;6193599;28;20088;-67
2023/09/08 03:34:44;;;;;;;1.58;1.17;;;22.40;58.20;;;;;;6193539;28;20109;-67
2023/09/08 03:37:44;;;;;;;1.10;1.00;;;22.30;58.20;;;;;;6193005;28;20416;-67
2023/09/08 03:40:45;;;;;;;1.10;1.00;;;22.40;58.60;;;;;;6193340;28;20061;-67
2023/09/08 03:43:46;;;;;;;1.58;1.35;;;22.30;58.30;;;;;;6193682;28;20042;-67
2023/09/08 03:46:46;;;;;;;2.13;1.15;;;22.30;58.30;;;;;;6193299;28;20022;-67
2023/09/08 03:49:47;;;;;;;1.23;1.00;;;22.30;58.30;;;;;;6193119;28;20092;-67
2023/09/08 03:52:47;;;;;;;1.48;1.30;;;22.30;58.40;;;;;;6194070;28;20066;-68
2023/09/08 03:55:48;;;;;;;1.15;0.80;;;22.30;58.40;;;;;;6193385;28;20096;-67
2023/09/08 03:58:49;;;;;;;1.23;0.93;;;22.30;58.50;;;;;;6193827;28;20119;-68
2023/09/08 04:01:49;;;;;;;1.15;0.93;;;22.30;58.50;;;;;;6193468;28;20038;-67
2023/09/08 04:04:50;;;;;;;1.40;1.10;;;22.30;58.60;;;;;;6193749;28;20034;-67
2023/09/08 04:07:50;;;;;;;2.17;1.38;;;22.30;58.60;;;;;;6193284;28;20034;-66
2023/09/08 04:10:51;;;;;;;1.40;1.13;;;22.30;58.60;;;;;;6193438;28;20030;-67
2023/09/08 04:13:52;;;;;;;1.40;1.17;;;22.30;58.70;;;;;;6192989;28;20133;-67
2023/09/08 04:16:53;;;;;;;1.15;1.00;;;22.30;58.70;;;;;;6193272;28;20129;-67
2023/09/08 04:19:53;;;;;;;1.20;1.02;;;22.30;58.70;;;;;;6193123;28;20042;-67
2023/09/08 04:22:54;;;;;;;1.50;1.20;;;22.30;58.80;;;;;;6193786;28;20029;-67
2023/09/08 04:25:55;;;;;;;2.05;1.30;;;22.30;58.80;;;;;;6193130;28;20494;-67
2023/09/08 04:28:55;;;;;;;1.58;1.17;;;22.30;58.80;;;;;;6193205;28;20046;-66
2023/09/08 04:31:56;;;;;;;1.10;0.90;;;22.30;58.90;;;;;;6193344;28;20030;-67
2023/09/08 04:34:56;;;;;;;1.20;0.90;;;22.30;59.70;;;;;;6193418;28;20117;-66
2023/09/08 04:37:57;;;;;;;1.40;1.05;;;22.20;58.90;;;;;;6193224;28;20037;-67
2023/09/08 04:40:58;;;;;;;0.90;0.90;;;22.30;59.10;;;;;;6192933;28;20034;-67
2023/09/08 04:43:59;;;;;;;1.27;1.10;;;22.30;59.00;;;;;;6193356;28;20030;-67
2023/09/08 04:46:59;;;;;;;1.50;1.20;;;22.30;59.10;;;;;;6192979;28;20481;-66
2023/09/08 04:50:00;;;;;;;1.40;1.20;;;22.30;59.20;;;;;;6195033;28;20118;-66
2023/09/08 04:53:00;;;;;;;2.70;1.00;;;22.30;59.20;;;;;;6197123;28;20031;-66
2023/09/08 04:56:01;;;;;;;1.33;1.10;;;22.30;59.20;;;;;;6197369;28;20487;-67
2023/09/08 04:59:02;;;;;;;1.27;0.98;;;22.20;59.20;;;;;;6197434;28;20039;-67
2023/09/08 05:02:03;;;;;;;1.20;1.00;;;22.30;59.30;;;;;;6188715;28;20030;-67
2023/09/08 05:05:04;;;;;;;1.20;1.10;;;22.30;59.30;;;;;;6197229;28;20389;-67
2023/09/08 05:08:05;;;;;;;1.40;1.15;;;22.30;59.40;;;;;;6196852;28;20340;-67
2023/09/08 05:11:05;;;;;;;1.45;1.30;;;22.30;59.40;;;;;;6197649;28;20061;-67
2023/09/08 05:14:06;;;;;;;1.45;1.10;;;22.30;59.40;;;;;;6196750;28;20059;-67
2023/09/08 05:17:06;;;;;;;1.48;1.25;;;22.30;59.50;;;;;;6195915;28;20026;-67
2023/09/08 05:20:08;;;;;;;2.03;1.08;;;22.20;59.40;;;;;;6196780;28;20046;-67
2023/09/08 05:23:08;;;;;;;1.50;1.20;;;22.20;59.40;;;;;;6196783;28;20072;-67
2023/09/08 05:26:09;;;;;;;1.20;1.10;;;22.20;59.50;;;;;;6196963;28;20019;-67
2023/09/08 05:29:10;;;;;;;1.20;1.00;;;22.20;59.50;;;;;;6196940;28;20512;-67
2023/09/08 05:32:10;;;;;;;1.30;1.00;;;22.20;59.40;;;;;;6196570;28;20022;-67
2023/09/08 05:35:11;;;;;;;1.48;1.30;;;22.20;59.50;;;;;;6196317;28;20040;-67
2023/09/08 05:38:12;;;;;;;1.52;1.30;;;22.20;59.60;;;;;;6196428;28;20045;-67
2023/09/08 05:41:12;;;;;;;1.52;1.40;;;22.20;59.50;;;;;;6196172;28;20054;-66
2023/09/08 05:44:13;;;;;;;1.02;0.93;;;22.20;59.50;;;;;;6196322;28;20045;-67
2023/09/08 05:47:13;;;;;;;1.30;1.20;;;22.20;59.60;;;;;;6196517;28;20492;-67
2023/09/08 05:50:14;;;;;;;1.13;1.00;;;22.20;59.70;;;;;;6196281;28;20108;-67
2023/09/08 05:53:14;;;;;;;1.15;1.00;;;22.20;59.60;;;;;;6195996;28;20034;-67
2023/09/08 05:56:15;;;;;;;1.33;1.00;;;22.20;59.70;;;;;;6195785;28;20019;-68
2023/09/08 05:59:19;;;;;;;1.67;1.10;;;22.20;59.70;;;;;;6194162;28;20044;-68
2023/09/08 06:02:19;;;;;;;1.58;1.38;;;22.20;59.70;;;;;;6194234;28;20522;-67
2023/09/08 06:05:20;;;;;;;1.23;1.10;;;22.20;59.70;;;;;;6197404;28;20038;-67
2023/09/08 06:08:21;;;;;;;1.45;1.30;;;22.20;59.80;;;;;;6197531;28;20037;-68
2023/09/08 06:11:21;;;;;;;1.40;1.30;;;22.20;59.80;;;;;;6182685;28;20072;-68
2023/09/08 06:14:22;;;;;;;1.75;1.27;;;22.20;59.80;;;;;;6195326;28;20054;-67
2023/09/08 06:17:22;;;;;;;1.23;1.00;;;22.20;59.90;;;;;;6195264;28;20046;-68
2023/09/08 06:20:24;;;;;;;1.40;1.20;;;22.20;59.90;;;;;;6195562;28;20476;-67
2023/09/08 06:23:25;;;;;;;1.20;1.05;;;22.20;59.80;;;;;;6194156;28;20030;-67
2023/09/08 06:26:25;;;;;;;1.65;1.30;;;22.20;59.90;;;;;;6195554;28;20037;-67
2023/09/08 06:29:26;;;;;;;1.50;1.35;;;22.20;59.90;;;;;;6195033;28;20747;-68
2023/09/08 06:32:27;;;;;;;1.60;1.30;;;22.20;59.90;;;;;;6195452;28;20106;-68
2023/09/08 06:35:27;;;;;;;2.47;1.40;;;22.20;59.90;;;;;;6194797;28;20026;-67
2023/09/08 06:38:31;;;;;;;1.77;1.38;;;22.20;60.00;;;;;;6195580;28;20034;-68
2023/09/08 06:41:31;;;;;;;1.33;1.23;;;22.20;59.90;;;;;;6194700;28;20034;-67
2023/09/08 06:44:32;;;;;;;1.13;1.02;;;22.20;60.00;;;;;;6195231;28;20034;-67
2023/09/08 06:47:32;;;;;;;1.38;1.15;;;22.10;59.90;;;;;;6194516;28;20033;-67
2023/09/08 06:50:34;;;;;;;1.52;1.20;;;22.20;60.00;;;;;;6194872;28;20504;-67
2023/09/08 06:53:35;;;;;;;1.60;1.30;;;22.10;60.00;;;;;;6195355;28;20075;-67
2023/09/08 06:56:37;;;;;;;1.35;1.20;;;22.20;60.00;;;;;;6194319;28;20085;-67
2023/09/08 06:59:38;;;;;;;1.48;1.20;;;22.20;60.10;;;;;;6195388;28;20045;-67
2023/09/08 07:02:39;;;;;;;1.48;1.15;;;22.20;60.10;;;;;;6184574;28;20030;-67
2023/09/08 07:05:40;;;;;;;1.25;1.08;;;22.10;60.80;;;;;;6193982;28;20041;-67
2023/09/08 07:08:40;;;;;;;2.47;1.63;;;22.20;60.70;;;;;;6195460;28;20022;-67
2023/09/08 07:11:41;;;;;;;1.17;1.05;;;22.20;60.60;;;;;;6194903;28;20028;-67
2023/09/08 07:14:42;;;;;;;1.48;1.08;;;22.30;60.40;;;;;;6195141;28;20186;-67
2023/09/08 07:17:42;;;;;;;1.58;1.15;;;22.30;60.00;;;;;;6195742;28;20121;-67
2023/09/08 07:20:48;;;;;;;1.67;1.35;;;22.30;60.10;;;;;;6197453;28;20018;-67
2023/09/08 07:23:48;;;;;;;1.42;1.10;;;22.30;60.30;;;;;;6196904;28;20546;-67
2023/09/08 07:26:50;;;;;;;1.17;1.08;;;22.20;60.30;;;;;;6197133;28;20022;-67
2023/09/08 07:29:51;;;;;;;1.95;1.10;;;22.20;60.40;;;;;;6197804;28;20061;-67
2023/09/08 07:32:52;;;;;;;1.80;1.40;;;22.20;60.50;;;;;;6197226;28;20030;-67
2023/09/08 07:35:52;;;;;;;1.40;1.20;;;22.20;61.50;;;;;;6197736;28;20027;-68
2023/09/08 07:38:53;;;;;;;1.83;1.40;;;22.20;60.60;;;;;;6197050;28;20030;-68
2023/09/08 07:41:56;;;;;;;1.30;1.20;;;22.20;60.70;;;;;;6197390;28;20350;-67
2023/09/08 07:44:57;;;;;;;1.70;1.35;;;22.20;60.70;;;;;;6197468;28;20495;-67
2023/09/08 07:47:57;;;;;;;1.63;1.15;;;22.20;60.70;;;;;;6197169;28;20112;-67
2023/09/08 07:51:00;;;;;;;1.42;1.30;;;22.20;60.70;;;;;;6197251;28;20054;-67
2023/09/08 07:54:03;;;;;;;1.58;1.30;;;22.20;60.80;;;;;;6197200;28;20045;-67
2023/09/08 07:57:04;;;;;;;1.70;1.30;;;22.20;60.80;;;;;;6196721;28;20023;-67
2023/09/08 08:00:05;;;;;;;1.35;1.20;;;22.20;60.80;;;;;;6197940;28;20041;-67
2023/09/08 08:03:06;;;;;;;1.63;1.27;;;22.20;60.80;;;;;;6196609;28;20477;-67
2023/09/08 08:06:07;;;;;;;0.90;0.80;;;22.20;60.80;;;;;;6196867;28;20106;-68
2023/09/08 08:09:08;;;;;;;1.88;1.35;;;22.20;60.80;;;;;;6196518;28;20023;-67
2023/09/08 08:12:09;;;;;;;1.38;1.13;;;22.20;60.80;;;;;;6196462;28;20022;-67
2023/09/08 08:15:10;;;;;;;1.35;1.10;;;22.20;60.80;;;;;;6196208;28;20046;-67
2023/09/08 08:18:11;;;;;;;1.23;1.10;;;22.10;60.70;;;;;;6196593;28;20030;-67
2023/09/08 08:21:11;;;;;;;2.25;1.23;;;22.20;60.80;;;;;;6196816;28;20069;-67
2023/09/08 08:24:12;;;;;;;2.15;1.27;;;22.10;60.80;;;;;;6196589;28;20022;-67
2023/09/08 08:27:12;;;;;;;1.27;0.90;;;22.20;60.90;;;;;;6201383;28;20029;-67
2023/09/08 08:30:13;;;;;;;1.25;1.05;;;22.10;60.60;;;;;;6201184;28;20027;-68
2023/09/08 08:33:14;;;;;;;1.30;1.17;;;22.20;60.80;;;;;;6201155;28;20014;-68
2023/09/08 08:36:15;;;;;;;2.17;1.75;;;22.20;60.70;;;;;;6201129;28;20033;-68
2023/09/08 08:39:15;;;;;;;1.75;1.23;;;22.20;60.60;;;;;;6200783;28;20050;-67
2023/09/08 08:42:16;;;;;;;1.40;1.08;;;22.20;61.00;;;;;;6200782;28;20093;-67
2023/09/08 08:45:19;;;;;;;1.20;1.00;;;22.20;61.10;;;;;;6188050;28;20026;-67
2023/09/08 08:48:21;;;;;;;1.83;1.40;;;22.20;61.00;;;;;;6198987;28;20026;-67
2023/09/08 08:51:23;;;;;;;1.30;1.17;;;22.20;61.10;;;;;;6188627;28;20038;-67
2023/09/08 08:54:25;;;;;;;1.50;1.17;;;22.20;61.10;;;;;;6198338;28;20027;-68
2023/09/08 08:57:27;;;;;;;1.45;1.25;;;22.10;61.10;;;;;;6188805;28;20050;-67
2023/09/08 09:00:28;;;;;;;1.52;1.30;;;22.10;61.10;;;;;;6195713;28;20018;-67
2023/09/08 09:03:31;;;;;;;1.38;1.13;;;22.10;61.20;;;;;;6182820;28;20033;-67
2023/09/08 09:06:32;;;;;;;1.20;1.10;;;22.20;61.30;;;;;;6198052;28;20078;-67
2023/09/08 09:09:33;;;;;;;1.15;1.00;;;22.10;61.10;;;;;;6198259;28;20025;-67
2023/09/08 09:12:36;;;;;;;1.42;1.17;;;22.10;61.20;;;;;;6199101;28;20121;-67
2023/09/08 09:15:36;;;;;;;1.45;1.23;;;22.10;61.20;;;;;;6198830;28;20026;-67
2023/09/08 09:18:53;;;;;;;1.27;1.15;;;22.10;61.20;;;;;;6198782;28;20104;-67
2023/09/08 09:21:55;;;;;;;1.30;1.10;;;22.10;61.20;;;;;;6198639;28;20049;-67
2023/09/08 09:24:57;;;;;;;1.38;1.10;;;22.10;61.20;;;;;;6190646;28;20101;-67
2023/09/08 09:28:00;;;;;;;1.08;0.88;;;22.10;61.10;;;;;;6198696;28;20084;-67
2023/09/08 09:31:00;;;;;;;1.35;1.20;;;22.10;61.20;;;;;;6198625;28;20045;-67
2023/09/08 09:34:04;;;;;;;0.93;0.80;;;22.10;61.30;;;;;;6198669;28;20022;-67
2023/09/08 09:37:05;;;;;;;1.73;1.00;;;22.10;61.30;;;;;;6197383;28;20116;-68
2023/09/08 09:40:07;;;;;;;1.00;0.90;;;22.10;61.30;;;;;;6198199;28;20019;-67
2023/09/08 09:43:09;;;;;;;1.58;1.27;;;22.10;61.30;;;;;;6198518;28;20105;-67
2023/09/08 09:46:10;;;;;;;1.00;0.90;;;22.10;60.90;;;;;;6197861;28;20069;-68
2023/09/08 09:49:13;;;;;;;2.42;1.27;;;22.20;61.30;;;;;;6197544;28;20027;-68
2023/09/08 09:52:20;;;;;;;3.03;1.17;;;22.20;61.40;;;;;;6198059;28;20037;-68
2023/09/08 09:55:20;;;;;;;3.28;1.17;;;22.30;61.60;;;;;;6198027;28;20038;-67
2023/09/08 09:58:22;;;;;;;3.03;1.10;;;22.30;61.60;;;;;;6197842;28;20120;-68
2023/09/08 10:01:25;;;;;;;1.92;1.30;;;22.30;61.60;;;;;;6197694;28;20027;-68
2023/09/08 10:04:27;;;;;;;5.15;1.20;;;22.20;61.60;;;;;;6197546;28;20022;-68
2023/09/08 10:07:27;;;;;;;1.23;0.98;;;22.20;61.50;;;;;;6197845;28;20025;-68
2023/09/08 10:10:31;;;;;;;0.90;0.80;;;22.30;61.70;;;;;;6197489;28;20097;-68
2023/09/08 10:13:38;;;;;;;1.92;1.27;;;22.30;61.70;;;;;;6197384;28;20144;-67
2023/09/08 10:16:40;;;;;;;1.40;1.20;;;22.20;62.50;;;;;;6197538;28;20054;-68
2023/09/08 10:19:43;;;;;;;2.13;1.35;;;22.20;61.60;;;;;;6197253;28;20034;-67
2023/09/08 10:22:45;;;;;;;2.03;1.40;;;22.20;61.70;;;;;;6197323;28;20124;-68
2023/09/08 10:25:53;;;;;;;2.45;1.10;;;22.20;61.70;;;;;;6196901;28;20382;-68
2023/09/08 10:28:57;;;;;;;1.30;1.10;;;22.20;61.70;;;;;;6197082;28;20481;-68
2023/09/08 10:31:59;;;;;;;1.25;1.00;;;22.20;61.70;;;;;;6196403;28;20026;-67
2023/09/08 10:35:02;;;;;;;1.48;1.27;;;22.20;61.70;;;;;;6196644;28;20018;-68
2023/09/08 10:38:28;;;;;;;1.23;1.10;;;22.20;61.70;;;;;;6196456;28;20400;-67
2023/09/08 10:41:29;;;;;;;4.03;1.20;;;22.20;61.70;;;;;;6193969;28;20042;-68
2023/09/08 10:44:32;;;;;;;1.20;1.10;;;22.20;61.70;;;;;;6196573;28;20026;-67
2023/09/08 10:47:46;;;;;;;1.48;0.98;;;22.20;61.70;;;;;;6194699;28;20065;-68
2023/09/08 10:50:47;;;;;;;1.75;1.10;;;22.20;61.70;;;;;;6196728;28;20029;-67
2023/09/08 10:53:49;;;;;;;1.70;1.10;;;22.20;61.70;;;;;;6196392;28;20022;-67
2023/09/08 10:56:56;;;;;;;1.20;1.00;;;22.20;61.80;;;;;;6196705;28;20029;-67
2023/09/08 11:00:05;;;;;;;1.80;0.90;;;22.20;61.80;;;;;;6188265;28;20456;-67
2023/09/08 11:03:06;;;;;;;1.20;1.00;;;22.20;61.80;;;;;;6196302;28;20433;-68
2023/09/08 11:06:11;;;;;;;3.85;1.00;;;22.20;61.80;;;;;;6196342;28;20413;-68
2023/09/08 11:09:12;;;;;;;1.50;1.10;;;22.20;61.80;;;;;;6196193;28;20027;-68
2023/09/08 11:12:15;;;;;;;1.20;1.00;;;22.20;61.80;;;;;;6196047;28;20038;-68
2023/09/08 11:15:16;;;;;;;1.23;1.00;;;22.20;61.80;;;;;;6195390;28;20026;-67
2023/09/08 11:18:17;;;;;;;1.40;1.00;;;22.20;61.80;;;;;;6195972;28;20121;-67
2023/09/08 11:21:17;;;;;;;1.63;1.10;;;22.20;61.80;;;;;;6195458;28;20026;-68
2023/09/08 11:24:18;;;;;;;1.38;1.00;;;22.20;61.90;;;;;;6186323;28;20680;-67
2023/09/08 11:27:20;;;;;;;1.92;1.38;;;22.20;61.80;;;;;;6195633;28;20162;-68
2023/09/08 11:30:21;;;;;;;1.30;1.00;;;22.20;61.80;;;;;;6195816;28;20034;-68
2023/09/08 11:33:26;;;;;;;1.42;1.08;;;22.20;61.90;;;;;;6195821;28;20030;-68
2023/09/08 11:36:28;;;;;;;1.67;1.10;;;22.20;61.90;;;;;;6185693;28;20511;-68
2023/09/08 11:39:29;;;;;;;1.25;1.00;;;22.20;61.90;;;;;;6193677;28;20101;-68
2023/09/08 11:42:29;;;;;;;0.98;0.88;;;22.10;61.80;;;;;;6195281;28;20022;-68
2023/09/08 11:45:33;;;;;;;1.10;0.90;;;22.20;61.80;;;;;;6195463;28;20498;-67
2023/09/08 11:48:35;;;;;;;0.80;0.80;;;22.20;61.90;;;;;;6195218;28;20029;-67
2023/09/08 11:51:37;;;;;;;0.80;0.80;;;22.20;61.90;;;;;;6195324;28;20033;-67
2023/09/08 11:54:38;;;;;;;1.10;1.00;;;22.20;62.00;;;;;;6190750;28;20401;-67
2023/09/08 11:57:41;;;;;;;1.10;0.90;;;22.20;61.90;;;;;;6191082;28;20034;-68
2023/09/08 12:00:44;;;;;;;1.10;0.98;;;22.20;61.90;;;;;;6199427;28;20105;-68
2023/09/08 12:03:52;;;;;;;0.80;0.80;;;22.10;61.80;;;;;;6200259;28;20018;-68
2023/09/08 12:06:57;;;;;;;1.50;1.25;;;22.20;61.90;;;;;;6200078;28;20057;-68
2023/09/08 12:09:58;;;;;;;1.15;1.05;;;22.20;62.00;;;;;;6199894;28;20453;-67
2023/09/08 12:13:00;;;;;;;1.77;1.10;;;22.20;62.00;;;;;;6198346;28;20512;-68
2023/09/08 12:16:00;;;;;;;2.45;1.10;;;22.10;61.90;;;;;;6197907;28;20041;-68
2023/09/08 12:19:01;;;;;;;1.13;1.00;;;22.20;62.00;;;;;;6197612;28;20046;-68
2023/09/08 12:22:03;;;;;;;1.20;1.00;;;22.20;62.00;;;;;;6198065;28;20038;-68
2023/09/08 12:25:08;;;;;;;0.82;0.80;;;22.10;61.90;;;;;;6198438;28;20033;-67
2023/09/08 12:28:09;;;;;;;1.02;0.93;;;22.20;62.00;;;;;;6197236;28;20048;-67
2023/09/08 12:31:10;;;;;;;1.05;0.70;;;22.20;62.00;;;;;;6197934;28;20034;-67
2023/09/08 12:34:12;;;;;;;1.00;0.80;;;22.20;62.00;;;;;;6197983;28;20034;-67
2023/09/08 12:37:13;;;;;;;1.38;1.00;;;22.10;61.90;;;;;;6197177;28;20028;-68
2023/09/08 12:40:15;;;;;;;0.63;0.63;;;22.10;62.00;;;;;;6197615;28;20034;-66
2023/09/08 12:43:15;;;;;;;1.10;0.90;;;22.10;62.00;;;;;;6190419;28;20128;-68
2023/09/08 12:46:18;;;;;;;1.42;1.10;;;22.10;62.00;;;;;;5340681;28;10001005;-69
2023/09/08 12:49:19;;;;;;;1.52;1.20;;;22.10;62.00;;;;;;6241957;28;20112;-68
2023/09/08 12:52:19;;;;;;;1.00;0.90;;;22.10;62.00;;;;;;6227264;28;20021;-67
2023/09/08 12:55:20;;;;;;;1.23;1.00;;;22.10;62.00;;;;;;6246327;28;20411;-68
2023/09/08 12:58:21;;;;;;;1.08;0.93;;;22.10;62.90;;;;;;6236755;28;20041;-67
2023/09/08 13:01:21;;;;;;;0.90;0.73;;;22.10;62.00;;;;;;6245435;28;20034;-67
2023/09/08 13:04:22;;;;;;;1.48;0.90;;;22.10;62.00;;;;;;6238838;28;20503;-68
2023/09/08 13:07:23;;;;;;;1.33;0.93;;;22.10;62.00;;;;;;6242163;28;20032;-68
2023/09/08 13:10:24;;;;;;;0.95;0.73;;;22.10;62.00;;;;;;6241008;28;20683;-68
2023/09/08 13:13:24;;;;;;;0.77;0.73;;;22.10;62.10;;;;;;6234051;28;20112;-68
2023/09/08 13:16:25;;;;;;;1.33;1.00;;;22.10;62.10;;;;;;6222777;28;20084;-68
2023/09/08 13:19:25;;;;;;;3.47;0.82;;;22.10;62.10;;;;;;6241856;28;20448;-68
2023/09/08 13:22:26;;;;;;;2.75;0.80;;;22.10;62.10;;;;;;6242610;28;20113;-68
2023/09/08 13:25:27;;;;;;;1.00;0.90;;;22.10;62.20;;;;;;6222818;28;20366;-67
2023/09/08 13:28:27;;;;;;;0.80;0.80;;;22.10;62.20;;;;;;6232786;28;20036;-67
2023/09/08 13:31:28;;;;;;;1.58;1.25;;;22.10;62.10;;;;;;6247583;28;20021;-68
2023/09/08 13:34:29;;;;;;;0.80;0.80;;;22.10;62.10;;;;;;6225935;28;20022;-68
2023/09/08 13:37:30;;;;;;;1.35;1.02;;;22.10;62.10;;;;;;6223713;28;20021;-67
2023/09/08 13:40:31;;;;;;;1.48;1.05;;;22.10;62.10;;;;;;6225611;28;20026;-68
2023/09/08 13:43:31;;;;;;;1.05;0.77;;;22.10;62.10;;;;;;6222336;28;20041;-67
2023/09/08 13:46:32;;;;;;;0.73;0.70;;;22.10;62.10;;;;;;6222850;28;20053;-68
2023/09/08 13:49:32;;;;;;;1.25;1.10;;;22.10;62.20;;;;;;6225008;28;20053;-68
2023/09/08 13:52:33;;;;;;;1.67;0.80;;;22.10;62.10;;;;;;6222160;28;20018;-68
2023/09/08 13:55:34;;;;;;;1.58;1.00;;;22.10;62.20;;;;;;6222595;28;20029;-67
2023/09/08 13:58:34;;;;;;;1.20;1.08;;;22.10;62.10;;;;;;6223128;28;20042;-67
2023/09/08 14:01:36;;;;;;;2.20;1.00;;;22.10;62.20;;;;;;6221922;28;20029;-67
2023/09/08 14:04:39;;;;;;;1.35;0.90;;;22.10;62.20;;;;;;6222217;28;20028;-68
2023/09/08 14:07:40;;;;;;;1.42;1.10;;;22.10;62.20;;;;;;6218255;28;20033;-68
2023/09/08 14:10:40;;;;;;;0.90;0.80;;;22.10;62.50;;;;;;6220683;28;20057;-67
2023/09/08 14:13:41;;;;;;;1.15;1.00;;;22.10;62.20;;;;;;6227274;28;20061;-67
2023/09/08 14:16:41;;;;;;;1.10;1.00;;;22.10;62.20;;;;;;6223639;28;20022;-67
2023/09/08 14:19:42;;;;;;;1.08;0.88;;;22.10;62.20;;;;;;6221602;28;20034;-67
2023/09/08 14:22:43;;;;;;;1.73;1.20;;;22.10;62.20;;;;;;6222046;28;20037;-67
2023/09/08 14:25:43;;;;;;;1.10;0.80;;;22.10;62.20;;;;;;6227472;28;20042;-68
2023/09/08 14:28:44;;;;;;;1.00;0.90;;;22.10;62.20;;;;;;6221308;28;20022;-67
2023/09/08 14:31:44;;;;;;;1.88;1.00;;;22.10;62.30;;;;;;6221166;28;20057;-68
2023/09/08 14:34:45;;;;;;;1.27;1.15;;;22.10;62.20;;;;;;6232554;28;20021;-68
2023/09/08 14:37:48;;;;;;;1.20;0.93;;;22.10;62.20;;;;;;6222397;28;20026;-68
2023/09/08 14:40:56;;;;;;;1.00;0.85;;;22.10;62.20;;;;;;6221084;28;20068;-68
2023/09/08 14:43:56;;;;;;;1.08;0.98;;;22.10;62.20;;;;;;6223116;28;20017;-68
2023/09/08 14:46:57;;;;;;;1.10;0.90;;;22.10;62.30;;;;;;6228722;28;20084;-68
2023/09/08 14:49:58;;;;;;;1.67;1.10;;;22.10;62.30;;;;;;6220807;28;20026;-68
2023/09/08 14:52:58;;;;;;;1.00;0.88;;;22.10;62.30;;;;;;6198429;28;20068;-67
2023/09/08 14:55:59;;;;;;;1.42;1.00;;;22.10;62.30;;;;;;6224600;28;20637;-68
2023/09/08 14:59:00;;;;;;;1.33;0.98;;;22.10;62.30;;;;;;6222479;28;20100;-68
2023/09/08 15:02:00;;;;;;;1.10;1.00;;;22.10;62.30;;;;;;6227264;28;20105;-67
2023/09/08 15:05:01;;;;;;;1.42;1.13;;;22.10;62.40;;;;;;6230450;28;20049;-68
2023/09/08 15:08:02;;;;;;;1.00;0.90;;;22.10;62.30;;;;;;6227060;28;20026;-68
2023/09/08 15:11:03;;;;;;;1.45;1.00;;;22.10;62.30;;;;;;6220488;28;20029;-68
2023/09/08 15:14:04;;;;;;;1.25;0.95;;;22.10;62.30;;;;;;6220710;28;20152;-68
2023/09/08 15:17:06;;;;;;;1.30;1.00;;;22.10;62.40;;;;;;6235106;28;20080;-68
2023/09/08 15:20:09;;;;;;;1.13;1.00;;;22.10;62.30;;;;;;6220664;28;20034;-68
2023/09/08 15:23:09;;;;;;;1.25;1.13;;;22.10;62.40;;;;;;6220444;28;20066;-67
2023/09/08 15:26:10;;;;;;;1.38;1.00;;;22.10;62.40;;;;;;6233991;28;20468;-68
2023/09/08 15:29:12;;;;;;;1.55;1.02;;;22.10;62.40;;;;;;6220555;28;20022;-67
2023/09/08 15:32:13;;;;;;;0.95;0.70;;;22.10;62.40;;;;;;6220280;28;20033;-69
2023/09/08 15:35:13;;;;;;;1.48;0.93;;;22.10;62.50;;;;;;6227341;28;20022;-68
2023/09/08 15:38:14;;;;;;;1.00;0.90;;;22.10;62.40;;;;;;6233636;28;20026;-68
2023/09/08 15:41:17;;;;;;;2.85;1.10;;;22.10;62.50;;;;;;6220840;28;20030;-68
2023/09/08 15:44:18;;;;;;;1.40;0.90;;;22.10;63.30;;;;;;6220047;28;20472;-68